createdAt,value
2022-12-23T00:01:23.136Z,11.27
2022-12-23T00:03:51.558Z,10.70
2022-12-23T00:06:20.881Z,11.57
2022-12-23T00:08:48.910Z,11.30
2022-12-23T00:11:19.557Z,10.33
2022-12-23T00:14:07.122Z,10.13
2022-12-23T00:16:37.351Z,9.67
2022-12-23T00:19:06.310Z,10.27
2022-12-23T00:21:35.945Z,11.17
2022-12-23T00:24:04.306Z,11.47
2022-12-23T00:26:32.675Z,10.63
2022-12-23T00:29:02.056Z,11.40
2022-12-23T00:31:30.474Z,10.87
2022-12-23T00:33:59.932Z,11.03
2022-12-23T00:36:29.654Z,10.87
2022-12-23T00:39:16.741Z,10.13
2022-12-23T00:42:03.416Z,10.50
2022-12-23T00:44:33.210Z,11.67
2022-12-23T00:47:01.638Z,9.57
2022-12-23T00:49:44.231Z,10.50
2022-12-23T00:52:13.769Z,10.83
2022-12-23T00:54:42.396Z,10.17
2022-12-23T00:57:10.835Z,11.10
2022-12-23T00:59:40.240Z,10.33
2022-12-23T01:02:26.247Z,10.00
2022-12-23T01:05:12.635Z,10.07
2022-12-23T01:07:42.400Z,10.80
2022-12-23T01:10:11.115Z,10.53
2022-12-23T01:12:39.499Z,10.07
2022-12-23T01:15:09.981Z,10.37
2022-12-23T01:17:38.376Z,9.33
2022-12-23T01:20:07.672Z,10.37
2022-12-23T01:22:35.715Z,10.77
2022-12-23T01:25:04.385Z,10.30
2022-12-23T01:27:32.739Z,9.83
2022-12-23T01:30:00.899Z,11.23
2022-12-23T01:32:30.574Z,9.70
2022-12-23T01:34:58.679Z,10.20
2022-12-23T01:37:27.075Z,9.67
2022-12-23T01:39:55.403Z,8.90
2022-12-23T01:42:41.351Z,9.80
2022-12-23T01:45:15.353Z,9.60
2022-12-23T01:47:47.011Z,8.73
2022-12-23T01:50:16.991Z,9.70
2022-12-23T01:52:46.987Z,9.67
2022-12-23T01:55:19.728Z,9.77
2022-12-23T01:57:48.825Z,9.07
2022-12-23T02:00:35.195Z,9.10
2022-12-23T02:03:22.541Z,8.87
2022-12-23T02:05:51.873Z,10.20
2022-12-23T02:08:37.751Z,9.17
2022-12-23T02:11:18.724Z,9.93
2022-12-23T02:14:06.400Z,9.67
2022-12-23T02:16:39.178Z,10.27
2022-12-23T02:19:14.331Z,9.47
2022-12-23T02:22:02.401Z,11.27
2022-12-23T02:24:54.594Z,10.93
2022-12-23T02:27:29.785Z,10.53
2022-12-23T02:30:16.012Z,10.60
2022-12-23T02:32:52.022Z,10.80
2022-12-23T02:35:28.561Z,10.83
2022-12-23T02:37:58.795Z,10.87
2022-12-23T02:40:32.979Z,11.33
2022-12-23T02:43:02.355Z,11.07
2022-12-23T02:45:34.716Z,10.33
2022-12-23T02:48:08.633Z,11.27
2022-12-23T02:50:38.526Z,11.93
2022-12-23T02:53:09.656Z,11.30
2022-12-23T02:55:39.280Z,11.83
2022-12-23T02:58:10.046Z,12.10
2022-12-23T03:00:39.906Z,11.47
2022-12-23T03:03:09.844Z,12.83
2022-12-23T03:05:39.370Z,12.20
2022-12-23T03:08:13.487Z,13.53
2022-12-23T03:10:50.351Z,14.40
2022-12-23T03:13:23.677Z,14.73
2022-12-23T03:15:54.547Z,13.43
2022-12-23T03:18:27.563Z,13.73
2022-12-23T03:20:58.876Z,13.67
2022-12-23T03:23:30.121Z,12.90
2022-12-23T03:26:04.685Z,13.47
2022-12-23T03:28:39.036Z,14.63
2022-12-23T03:31:10.097Z,15.47
2022-12-23T03:33:43.395Z,16.13
2022-12-23T03:36:15.939Z,16.07
2022-12-23T03:38:45.580Z,15.47
2022-12-23T03:41:15.876Z,16.47
2022-12-23T03:43:51.057Z,15.13
2022-12-23T03:46:21.402Z,15.67
2022-12-23T03:48:52.683Z,16.90
2022-12-23T03:51:26.871Z,15.93
2022-12-23T03:54:00.314Z,17.50
2022-12-23T03:56:30.760Z,18.00
2022-12-23T03:59:00.775Z,18.03
2022-12-23T04:01:33.344Z,18.13
2022-12-23T04:04:07.453Z,17.73
2022-12-23T04:06:42.133Z,17.60
2022-12-23T04:09:10.973Z,17.90
2022-12-23T04:11:39.498Z,18.00
2022-12-23T04:14:09.106Z,18.47
2022-12-23T04:16:37.649Z,18.83
2022-12-23T04:19:07.192Z,19.10
2022-12-23T04:21:35.539Z,16.77
2022-12-23T04:24:03.891Z,17.87
2022-12-23T04:26:32.200Z,17.90
2022-12-23T04:29:00.662Z,17.63
2022-12-23T04:31:28.716Z,18.60
2022-12-23T04:33:57.186Z,18.47
2022-12-23T04:36:26.942Z,18.23
2022-12-23T04:38:55.337Z,20.07
2022-12-23T04:41:24.317Z,19.13
2022-12-23T04:43:53.491Z,19.73
2022-12-23T04:46:22.139Z,18.80
2022-12-23T04:48:50.574Z,17.93
2022-12-23T04:51:19.002Z,19.30
2022-12-23T04:53:48.782Z,19.47
2022-12-23T04:56:17.146Z,20.30
2022-12-23T04:58:45.507Z,18.77
2022-12-23T05:01:13.903Z,21.27
2022-12-23T05:03:42.644Z,18.77
2022-12-23T05:06:10.957Z,20.93
2022-12-23T05:08:39.309Z,22.93
2022-12-23T05:11:09.042Z,18.90
2022-12-23T05:13:37.433Z,19.07
2022-12-23T05:16:06.078Z,18.27
2022-12-23T05:18:34.455Z,19.87
2022-12-23T05:21:02.849Z,19.93
2022-12-23T05:23:31.261Z,20.07
2022-12-23T05:25:59.645Z,20.13
2022-12-23T05:28:29.369Z,21.83
2022-12-23T05:31:01.051Z,18.63
2022-12-23T05:33:29.798Z,20.47
2022-12-23T05:35:58.673Z,21.43
2022-12-23T05:38:27.081Z,20.17
2022-12-23T05:40:55.686Z,20.63
2022-12-23T05:43:23.957Z,20.77
2022-12-23T05:45:53.573Z,19.37
2022-12-23T05:48:21.971Z,21.23
2022-12-23T05:50:51.250Z,20.80
2022-12-23T05:53:19.928Z,18.87
2022-12-23T05:55:48.153Z,19.93
2022-12-23T05:58:16.749Z,19.33
2022-12-23T06:00:45.095Z,18.93
2022-12-23T06:03:14.717Z,19.10
2022-12-23T06:05:43.876Z,19.00
2022-12-23T06:08:12.214Z,18.30
2022-12-23T06:10:40.264Z,20.47
2022-12-23T06:13:08.601Z,19.03
2022-12-23T06:15:37.041Z,20.53
2022-12-23T06:18:05.226Z,20.10
2022-12-23T06:20:35.033Z,18.73
2022-12-23T06:23:03.435Z,18.97
2022-12-23T06:25:31.541Z,19.30
2022-12-23T06:27:59.894Z,19.57
2022-12-23T06:30:28.227Z,17.50
2022-12-23T06:32:57.061Z,18.30
2022-12-23T06:35:25.354Z,16.57
2022-12-23T06:37:55.867Z,18.93
2022-12-23T06:40:24.342Z,18.30
2022-12-23T06:42:52.734Z,17.40
2022-12-23T06:45:21.164Z,15.97
2022-12-23T06:47:49.474Z,18.30
2022-12-23T06:50:17.923Z,16.87
2022-12-23T06:52:46.483Z,17.57
2022-12-23T06:55:16.275Z,17.67
2022-12-23T06:57:44.565Z,15.70
2022-12-23T07:00:13.666Z,16.97
2022-12-23T07:02:42.210Z,14.77
2022-12-23T07:05:10.775Z,15.67
2022-12-23T07:07:39.115Z,15.80
2022-12-23T07:10:08.505Z,14.97
2022-12-23T07:12:37.988Z,15.67
2022-12-23T07:15:07.513Z,14.63
2022-12-23T07:17:36.238Z,15.30
2022-12-23T07:20:04.650Z,14.77
2022-12-23T07:22:32.995Z,15.77
2022-12-23T07:25:01.509Z,15.27
2022-12-23T07:27:29.821Z,14.50
2022-12-23T07:29:59.259Z,14.83
2022-12-23T07:32:27.574Z,14.17
2022-12-23T07:34:56.039Z,16.30
2022-12-23T07:37:24.391Z,15.40
2022-12-23T07:39:52.779Z,16.43
2022-12-23T07:45:11.662Z,15.77
2022-12-23T07:47:40.037Z,16.03
2022-12-23T07:50:09.403Z,16.53
2022-12-23T07:52:37.832Z,16.23
2022-12-23T07:55:06.752Z,16.33
2022-12-23T07:57:38.206Z,16.70
2022-12-23T08:00:08.234Z,17.27
2022-12-23T08:02:37.783Z,17.20
2022-12-23T08:05:07.014Z,17.73
2022-12-23T08:07:35.464Z,18.40
2022-12-23T08:10:03.808Z,18.73
2022-12-23T08:12:32.219Z,18.10
2022-12-23T08:15:00.707Z,17.83
2022-12-23T08:17:29.887Z,19.27
2022-12-23T08:19:59.303Z,16.63
2022-12-23T08:22:27.775Z,17.63
2022-12-23T08:24:56.096Z,18.07
2022-12-23T08:27:24.549Z,16.40
2022-12-23T08:29:52.938Z,17.83
2022-12-23T08:32:22.015Z,17.03
2022-12-23T08:34:50.334Z,18.03
2022-12-23T08:37:19.868Z,17.50
2022-12-23T08:39:48.344Z,16.53
2022-12-23T08:42:16.768Z,17.37
2022-12-23T08:44:45.112Z,17.80
2022-12-23T08:47:13.589Z,16.90
2022-12-23T08:49:42.088Z,16.80
2022-12-23T08:52:10.608Z,17.43
2022-12-23T08:54:40.040Z,16.80
2022-12-23T08:57:08.383Z,16.63
2022-12-23T08:59:36.853Z,17.43
2022-12-23T09:02:05.076Z,17.53
2022-12-23T09:04:34.273Z,17.27
2022-12-23T09:07:02.804Z,17.70
2022-12-23T09:09:31.151Z,17.27
2022-12-23T09:12:00.580Z,16.73
2022-12-23T09:14:29.048Z,16.83
2022-12-23T09:16:57.421Z,16.90
2022-12-23T09:19:25.770Z,17.80
2022-12-23T09:21:54.280Z,17.97
2022-12-23T09:24:22.697Z,16.60
2022-12-23T09:26:51.089Z,17.70
2022-12-23T09:29:20.484Z,17.33
2022-12-23T09:31:48.963Z,17.90
2022-12-23T09:34:17.359Z,17.90
2022-12-23T09:36:48.013Z,17.27
2022-12-23T09:39:20.034Z,16.70
2022-12-23T09:42:01.676Z,19.10
2022-12-23T09:44:44.429Z,18.27
2022-12-23T09:47:15.564Z,18.30
2022-12-23T09:49:47.155Z,19.03
2022-12-23T09:52:21.303Z,20.30
2022-12-23T09:54:51.630Z,17.30
2022-12-23T09:57:23.007Z,20.17
2022-12-23T10:00:03.143Z,20.20
2022-12-23T10:02:43.407Z,19.67
2022-12-23T10:05:22.841Z,18.30
2022-12-23T10:07:51.952Z,17.80
2022-12-23T10:10:29.932Z,17.30
2022-12-23T10:13:02.055Z,18.20
2022-12-23T10:15:36.695Z,17.83
2022-12-23T10:18:11.558Z,17.57
2022-12-23T10:20:45.587Z,18.90
2022-12-23T10:23:18.664Z,20.50
2022-12-23T10:25:52.437Z,19.37
2022-12-23T10:28:21.129Z,18.80
2022-12-23T10:31:39.350Z,19.40
2022-12-23T10:33:59.805Z,18.17
2022-12-23T10:36:32.701Z,17.80
2022-12-23T10:39:05.979Z,18.40
2022-12-23T10:41:41.570Z,19.33
2022-12-23T10:44:19.999Z,17.10
2022-12-23T10:47:00.088Z,18.27
2022-12-23T10:49:39.182Z,17.77
2022-12-23T10:52:13.883Z,17.93
2022-12-23T10:54:45.187Z,18.00
2022-12-23T10:57:15.437Z,18.27
2022-12-23T10:59:43.643Z,19.37
2022-12-23T11:02:38.408Z,17.60
2022-12-23T11:05:14.281Z,17.30
2022-12-23T11:07:45.138Z,18.73
2022-12-23T11:10:19.928Z,17.47
2022-12-23T11:12:49.850Z,18.27
2022-12-23T11:15:29.785Z,17.60
2022-12-23T11:18:08.104Z,16.60
2022-12-23T11:20:37.713Z,18.90
2022-12-23T11:23:17.415Z,18.33
2022-12-23T11:25:46.787Z,19.10
2022-12-23T11:28:18.268Z,16.33
2022-12-23T11:30:57.010Z,15.70
2022-12-23T11:33:29.136Z,17.03
2022-12-23T11:36:06.518Z,15.03
2022-12-23T11:38:36.954Z,15.47
2022-12-23T11:41:06.258Z,17.87
2022-12-23T11:43:35.261Z,17.00
2022-12-23T11:46:26.032Z,16.43
2022-12-23T11:49:08.486Z,14.73
2022-12-23T11:51:36.908Z,14.43
2022-12-23T11:54:05.406Z,15.23
2022-12-23T11:56:38.166Z,14.97
2022-12-23T11:59:09.454Z,15.10
2022-12-23T12:01:39.516Z,14.70
2022-12-23T12:04:15.839Z,13.77
2022-12-23T12:06:49.808Z,15.77
2022-12-23T12:09:21.802Z,14.87
2022-12-23T12:11:52.951Z,14.73
2022-12-23T12:14:25.960Z,13.33
2022-12-23T12:16:59.634Z,13.70
2022-12-23T12:19:32.831Z,12.90
2022-12-23T12:22:04.105Z,15.73
2022-12-23T12:24:37.950Z,17.33
2022-12-23T12:27:07.769Z,24.63
2022-12-23T12:29:40.993Z,16.97
2022-12-23T12:32:16.771Z,18.83
2022-12-23T12:34:53.862Z,25.40
2022-12-23T12:37:31.243Z,14.03
2022-12-23T12:40:03.629Z,14.60
2022-12-23T12:42:37.752Z,16.23
2022-12-23T12:45:15.526Z,15.93
2022-12-23T12:47:54.466Z,14.03
2022-12-23T12:50:30.232Z,12.13
2022-12-23T12:53:05.271Z,13.33
2022-12-23T12:55:37.358Z,13.23
2022-12-23T12:58:05.767Z,13.40
2022-12-23T13:00:49.484Z,13.40
2022-12-23T13:03:37.060Z,12.00
2022-12-23T13:06:19.875Z,12.40
2022-12-23T13:09:01.695Z,12.03
2022-12-23T13:11:43.968Z,12.03
2022-12-23T13:14:21.927Z,11.83
2022-12-23T13:16:59.733Z,12.23
2022-12-23T13:19:34.875Z,11.63
2022-12-23T13:22:09.766Z,12.80
2022-12-23T13:24:53.204Z,13.90
2022-12-23T13:27:27.209Z,14.40
2022-12-23T13:30:05.613Z,12.47
2022-12-23T13:32:59.503Z,10.37
2022-12-23T13:35:37.060Z,9.80
2022-12-23T13:38:19.172Z,9.97
2022-12-23T13:40:59.395Z,11.20
2022-12-23T13:43:32.605Z,10.37
2022-12-23T13:46:04.709Z,10.70
2022-12-23T13:48:40.994Z,10.43
2022-12-23T13:51:17.256Z,10.47
2022-12-23T13:54:04.205Z,10.27
2022-12-23T13:56:40.961Z,10.13
2022-12-23T13:59:11.318Z,9.70
2022-12-23T14:01:47.184Z,10.30
2022-12-23T14:04:37.508Z,11.37
2022-12-23T14:07:20.277Z,9.97
2022-12-23T14:09:55.366Z,10.30
2022-12-23T14:12:28.577Z,10.70
2022-12-23T14:15:22.206Z,11.07
2022-12-23T14:18:09.041Z,11.70
2022-12-23T14:20:48.495Z,10.57
2022-12-23T14:23:37.681Z,11.63
2022-12-23T14:26:36.915Z,11.70
2022-12-23T14:29:24.540Z,11.50
2022-12-23T14:31:57.136Z,11.87
2022-12-23T14:34:29.100Z,12.33
2022-12-23T14:37:30.657Z,12.73
2022-12-23T14:39:59.538Z,11.40
2022-12-23T14:42:40.894Z,12.97
2022-12-23T14:45:30.596Z,12.17
2022-12-23T14:47:58.740Z,12.23
2022-12-23T14:50:41.623Z,11.27
2022-12-23T14:53:25.024Z,11.37
2022-12-23T14:56:09.029Z,10.97
2022-12-23T14:59:05.722Z,11.63
2022-12-23T15:01:37.695Z,11.07
2022-12-23T15:04:18.529Z,11.30
2022-12-23T15:06:48.263Z,11.07
2022-12-23T15:09:24.796Z,12.30
2022-12-23T15:11:54.662Z,11.67
2022-12-23T15:14:28.518Z,11.20
2022-12-23T15:16:56.987Z,12.00
2022-12-23T15:19:27.196Z,12.63
2022-12-23T15:22:17.939Z,11.67
2022-12-23T15:24:48.231Z,11.87
2022-12-23T15:27:27.442Z,10.63
2022-12-23T15:29:58.904Z,10.90
2022-12-23T15:32:28.124Z,10.57
2022-12-23T15:35:01.086Z,11.60
2022-12-23T15:37:31.585Z,15.83
2022-12-23T15:40:11.438Z,14.67
2022-12-23T15:42:40.899Z,9.73
2022-12-23T15:45:33.423Z,9.10
2022-12-23T15:48:02.870Z,8.30
2022-12-23T15:50:31.983Z,8.23
2022-12-23T15:53:05.785Z,8.23
2022-12-23T15:55:34.753Z,7.93
2022-12-23T15:58:04.332Z,8.53
2022-12-23T16:00:38.713Z,8.43
2022-12-23T16:03:12.012Z,9.43
2022-12-23T16:05:44.889Z,8.90
2022-12-23T16:08:28.498Z,8.63
2022-12-23T16:11:04.645Z,9.13
2022-12-23T16:13:33.179Z,9.67
2022-12-23T16:16:32.432Z,10.03
2022-12-23T16:19:00.915Z,8.57
2022-12-23T16:21:32.113Z,9.23
2022-12-23T16:24:01.623Z,9.97
2022-12-23T16:26:29.984Z,9.70
2022-12-23T16:29:01.893Z,8.83
2022-12-23T16:31:31.426Z,9.43
2022-12-23T16:34:00.098Z,9.73
2022-12-23T16:36:34.597Z,9.00
2022-12-23T16:39:07.070Z,9.57
2022-12-23T16:41:35.591Z,9.03
2022-12-23T16:44:04.829Z,9.03
2022-12-23T16:46:37.536Z,9.60
2022-12-23T16:49:08.227Z,8.30
2022-12-23T16:51:36.836Z,10.37
2022-12-23T16:54:05.327Z,9.07
2022-12-23T16:56:35.773Z,12.30
2022-12-23T16:59:04.126Z,9.63
2022-12-23T17:01:36.296Z,10.17
2022-12-23T17:04:05.726Z,9.47
2022-12-23T17:06:35.831Z,10.43
2022-12-23T17:09:04.800Z,9.87
2022-12-23T17:11:38.901Z,9.10
2022-12-23T17:14:15.254Z,10.77
2022-12-23T17:16:45.700Z,12.40
2022-12-23T17:19:14.081Z,14.40
2022-12-23T17:21:44.202Z,10.23
2022-12-23T17:24:17.333Z,13.63
2022-12-23T17:26:45.790Z,10.63
2022-12-23T17:29:14.354Z,10.57
2022-12-23T17:31:43.061Z,11.27
2022-12-23T17:34:16.647Z,9.53
2022-12-23T17:36:50.020Z,10.67
2022-12-23T17:39:19.278Z,11.50
2022-12-23T17:41:47.848Z,12.70
2022-12-23T17:44:17.381Z,15.20
2022-12-23T17:46:46.734Z,15.33
2022-12-23T17:49:16.645Z,16.50
2022-12-23T17:51:45.118Z,18.40
2022-12-23T17:54:23.037Z,18.53
2022-12-23T17:56:51.490Z,18.87
2022-12-23T17:59:19.988Z,19.07
2022-12-23T18:01:48.403Z,20.10
2022-12-23T18:04:17.938Z,20.27
2022-12-23T18:06:46.282Z,20.17
2022-12-23T18:09:14.616Z,21.10
2022-12-23T18:11:45.332Z,20.40
2022-12-23T18:14:17.662Z,19.20
2022-12-23T18:16:46.371Z,14.20
2022-12-23T18:19:16.758Z,16.87
2022-12-23T18:21:47.014Z,16.63
2022-12-23T18:24:15.546Z,18.13
2022-12-23T18:26:43.815Z,19.30
2022-12-23T18:29:12.199Z,16.80
2022-12-23T18:31:50.640Z,18.13
2022-12-23T18:34:20.624Z,19.90
2022-12-23T18:36:51.484Z,20.23
2022-12-23T18:39:20.680Z,20.13
2022-12-23T18:41:49.027Z,20.43
2022-12-23T18:44:21.160Z,21.97
2022-12-23T18:46:50.048Z,20.73
2022-12-23T18:49:18.532Z,19.70
2022-12-23T18:51:46.871Z,18.77
2022-12-23T18:54:17.125Z,18.43
2022-12-23T18:56:46.723Z,16.70
2022-12-23T18:59:18.579Z,16.67
2022-12-23T19:01:48.626Z,16.67
2022-12-23T19:04:17.085Z,15.97
2022-12-23T19:06:47.494Z,15.63
2022-12-23T19:09:19.142Z,14.70
2022-12-23T19:11:47.780Z,16.43
2022-12-23T19:14:16.155Z,15.00
2022-12-23T19:16:50.916Z,14.00
2022-12-23T19:19:19.392Z,12.80
2022-12-23T19:21:47.871Z,12.97
2022-12-23T19:24:16.268Z,12.27
2022-12-23T19:26:46.094Z,13.20
2022-12-23T19:29:14.393Z,14.07
2022-12-23T19:31:42.769Z,14.07
2022-12-23T19:34:15.067Z,13.20
2022-12-23T19:36:44.015Z,15.63
2022-12-23T19:39:16.340Z,14.63
2022-12-23T19:41:46.506Z,15.17
2022-12-23T19:44:14.995Z,16.27
2022-12-23T19:46:43.725Z,13.23
2022-12-23T19:49:19.246Z,14.83
2022-12-23T19:51:48.225Z,14.83
2022-12-23T19:54:16.872Z,15.00
2022-12-23T19:56:47.140Z,15.50
2022-12-23T19:59:15.515Z,15.13
2022-12-23T20:01:43.934Z,14.60
2022-12-23T20:04:12.680Z,14.87
2022-12-23T20:06:41.677Z,15.33
2022-12-23T20:09:11.682Z,15.80
2022-12-23T20:11:41.643Z,15.07
2022-12-23T20:14:12.111Z,15.03
2022-12-23T20:16:40.971Z,14.23
2022-12-23T20:19:09.785Z,14.73
2022-12-23T20:21:38.427Z,15.20
2022-12-23T20:24:07.356Z,14.80
2022-12-23T20:26:36.142Z,14.43
2022-12-23T20:29:04.632Z,12.97
2022-12-23T20:31:37.534Z,14.53
2022-12-23T20:34:06.526Z,14.10
2022-12-23T20:36:35.920Z,13.83
2022-12-23T20:39:05.171Z,14.43
2022-12-23T20:41:33.690Z,13.57
2022-12-23T20:46:51.636Z,13.60
2022-12-23T20:49:20.031Z,13.07
2022-12-23T20:51:48.461Z,13.20
2022-12-23T20:54:16.818Z,13.37
2022-12-23T20:56:45.122Z,12.47
2022-12-23T20:59:13.592Z,13.07
2022-12-23T21:01:42.273Z,13.13
2022-12-23T21:04:14.171Z,13.63
2022-12-23T21:06:42.765Z,12.87
2022-12-23T21:09:13.675Z,12.87
2022-12-23T21:11:43.566Z,12.20
2022-12-23T21:14:12.303Z,12.70
2022-12-23T21:16:41.098Z,12.93
2022-12-23T21:19:10.501Z,11.67
2022-12-23T21:21:40.026Z,11.93
2022-12-23T21:24:08.464Z,13.50
2022-12-23T21:26:37.022Z,12.10
2022-12-23T21:29:07.247Z,12.83
2022-12-23T21:31:38.356Z,11.63
2022-12-23T21:34:07.343Z,10.87
2022-12-23T21:36:36.916Z,11.93
2022-12-23T21:39:07.092Z,11.63
2022-12-23T21:41:36.732Z,10.80
2022-12-23T21:44:05.504Z,10.70
2022-12-23T21:46:33.656Z,11.27
2022-12-23T21:49:02.864Z,11.17
2022-12-23T21:51:40.230Z,10.77
2022-12-23T21:54:11.416Z,11.07
2022-12-23T21:56:40.284Z,10.37
2022-12-23T21:59:09.786Z,9.83
2022-12-23T22:01:38.331Z,11.23
2022-12-23T22:04:07.210Z,9.43
2022-12-23T22:06:37.739Z,10.50
2022-12-23T22:09:06.726Z,11.67
2022-12-23T22:11:37.854Z,11.73
2022-12-23T22:14:08.216Z,11.20
2022-12-23T22:16:37.297Z,10.33
2022-12-23T22:19:06.695Z,9.87
2022-12-23T22:21:35.706Z,10.87
2022-12-23T22:24:04.572Z,10.17
2022-12-23T22:26:35.217Z,12.03
2022-12-23T22:29:05.756Z,10.10
2022-12-23T22:31:36.235Z,11.37
2022-12-23T22:34:04.845Z,10.47
2022-12-23T22:36:33.277Z,10.93
2022-12-23T22:39:03.060Z,10.03
2022-12-23T22:41:32.282Z,10.93
2022-12-23T22:44:01.776Z,12.43
2022-12-23T22:46:30.503Z,12.30
2022-12-23T22:48:59.815Z,11.63
2022-12-23T22:51:29.402Z,12.13
2022-12-23T22:53:57.820Z,12.13
2022-12-23T22:56:26.949Z,11.20
2022-12-23T22:58:55.765Z,12.33
2022-12-23T23:01:26.424Z,11.67
2022-12-23T23:03:57.859Z,12.20
2022-12-23T23:06:26.850Z,11.00
2022-12-23T23:08:55.652Z,11.37
2022-12-23T23:11:24.321Z,11.50
2022-12-23T23:13:52.898Z,12.40
2022-12-23T23:16:21.347Z,12.80
2022-12-23T23:18:50.989Z,12.23
2022-12-23T23:21:19.595Z,11.17
2022-12-23T23:23:47.961Z,11.73
2022-12-23T23:26:16.422Z,13.63
2022-12-23T23:28:45.109Z,10.90
2022-12-23T23:31:44.429Z,11.63
2022-12-23T23:34:03.684Z,10.93
2022-12-23T23:36:32.032Z,10.33
2022-12-23T23:39:00.116Z,10.33
2022-12-23T23:41:28.513Z,10.57
2022-12-23T23:43:56.834Z,11.30
2022-12-23T23:46:25.237Z,10.60
2022-12-23T23:48:53.736Z,11.40
2022-12-23T23:51:23.466Z,9.67
2022-12-23T23:53:51.977Z,10.50
2022-12-23T23:56:25.110Z,10.37
2022-12-23T23:58:54.606Z,11.00
